sensor_id;sensor_type;location;lat;lon;timestamp;P1;durP1;ratioP1;P2;durP2;ratioP2
65737;SDS011;52478;51.844;6.582;2023-04-15T00:01:51;6.43;;;2.55;;
65737;SDS011;52478;51.844;6.582;2023-04-15T00:04:17;5.70;;;2.00;;
65737;SDS011;52478;51.844;6.582;2023-04-15T00:06:50;6.22;;;2.13;;
65737;SDS011;52478;51.844;6.582;2023-04-15T00:09:17;5.60;;;2.05;;
65737;SDS011;52478;51.844;6.582;2023-04-15T00:11:44;5.28;;;2.20;;
65737;SDS011;52478;51.844;6.582;2023-04-15T00:14:11;5.60;;;2.13;;
65737;SDS011;52478;51.844;6.582;2023-04-15T00:16:37;5.38;;;2.47;;
65737;SDS011;52478;51.844;6.582;2023-04-15T00:19:04;6.97;;;2.45;;
65737;SDS011;52478;51.844;6.582;2023-04-15T00:21:30;6.55;;;2.28;;
65737;SDS011;52478;51.844;6.582;2023-04-15T00:23:58;6.55;;;2.80;;
65737;SDS011;52478;51.844;6.582;2023-04-15T00:26:25;5.78;;;2.50;;
65737;SDS011;52478;51.844;6.582;2023-04-15T00:28:52;6.05;;;2.70;;
65737;SDS011;52478;51.844;6.582;2023-04-15T00:31:19;6.38;;;2.83;;
65737;SDS011;52478;51.844;6.582;2023-04-15T00:33:45;6.13;;;2.40;;
65737;SDS011;52478;51.844;6.582;2023-04-15T00:36:12;5.60;;;2.17;;
65737;SDS011;52478;51.844;6.582;2023-04-15T00:38:39;5.45;;;2.25;;
65737;SDS011;52478;51.844;6.582;2023-04-15T00:41:07;6.90;;;2.78;;
65737;SDS011;52478;51.844;6.582;2023-04-15T00:43:35;6.50;;;2.40;;
65737;SDS011;52478;51.844;6.582;2023-04-15T00:46:03;5.75;;;2.58;;
65737;SDS011;52478;51.844;6.582;2023-04-15T00:48:29;6.20;;;2.42;;
65737;SDS011;52478;51.844;6.582;2023-04-15T00:50:56;5.75;;;2.45;;
65737;SDS011;52478;51.844;6.582;2023-04-15T00:53:23;5.40;;;2.13;;
65737;SDS011;52478;51.844;6.582;2023-04-15T00:55:49;5.90;;;2.60;;
65737;SDS011;52478;51.844;6.582;2023-04-15T00:58:17;5.22;;;2.38;;
65737;SDS011;52478;51.844;6.582;2023-04-15T01:00:44;6.05;;;2.55;;
65737;SDS011;52478;51.844;6.582;2023-04-15T01:03:11;5.32;;;2.28;;
65737;SDS011;52478;51.844;6.582;2023-04-15T01:05:39;6.97;;;2.55;;
65737;SDS011;52478;51.844;6.582;2023-04-15T01:08:06;6.03;;;2.40;;
65737;SDS011;52478;51.844;6.582;2023-04-15T01:10:33;5.18;;;2.17;;
65737;SDS011;52478;51.844;6.582;2023-04-15T01:13:00;5.32;;;2.60;;
65737;SDS011;52478;51.844;6.582;2023-04-15T01:15:29;5.75;;;2.45;;
65737;SDS011;52478;51.844;6.582;2023-04-15T01:17:56;6.07;;;2.13;;
65737;SDS011;52478;51.844;6.582;2023-04-15T01:20:23;6.60;;;2.58;;
65737;SDS011;52478;51.844;6.582;2023-04-15T01:22:50;5.93;;;2.60;;
65737;SDS011;52478;51.844;6.582;2023-04-15T01:25:17;6.38;;;2.13;;
65737;SDS011;52478;51.844;6.582;2023-04-15T01:27:47;5.25;;;2.38;;
65737;SDS011;52478;51.844;6.582;2023-04-15T01:30:13;5.07;;;2.10;;
65737;SDS011;52478;51.844;6.582;2023-04-15T01:32:40;6.80;;;2.70;;
65737;SDS011;52478;51.844;6.582;2023-04-15T01:35:06;6.63;;;2.72;;
65737;SDS011;52478;51.844;6.582;2023-04-15T01:37:33;5.53;;;2.47;;
65737;SDS011;52478;51.844;6.582;2023-04-15T01:40:00;7.40;;;2.35;;
65737;SDS011;52478;51.844;6.582;2023-04-15T01:42:27;5.57;;;2.42;;
65737;SDS011;52478;51.844;6.582;2023-04-15T01:44:55;5.72;;;2.13;;
65737;SDS011;52478;51.844;6.582;2023-04-15T01:47:21;6.88;;;2.85;;
65737;SDS011;52478;51.844;6.582;2023-04-15T01:49:48;7.68;;;2.40;;
65737;SDS011;52478;51.844;6.582;2023-04-15T01:52:14;6.22;;;2.03;;
65737;SDS011;52478;51.844;6.582;2023-04-15T01:54:41;5.85;;;2.28;;
65737;SDS011;52478;51.844;6.582;2023-04-15T01:57:07;6.13;;;2.70;;
65737;SDS011;52478;51.844;6.582;2023-04-15T01:59:34;5.95;;;2.10;;
65737;SDS011;52478;51.844;6.582;2023-04-15T02:02:02;5.45;;;2.28;;
65737;SDS011;52478;51.844;6.582;2023-04-15T02:04:29;5.78;;;2.60;;
65737;SDS011;52478;51.844;6.582;2023-04-15T02:06:55;5.72;;;2.50;;
65737;SDS011;52478;51.844;6.582;2023-04-15T02:09:22;5.65;;;2.50;;
65737;SDS011;52478;51.844;6.582;2023-04-15T02:11:49;6.45;;;2.67;;
65737;SDS011;52478;51.844;6.582;2023-04-15T02:14:16;6.43;;;2.15;;
65737;SDS011;52478;51.844;6.582;2023-04-15T02:16:42;5.78;;;2.45;;
65737;SDS011;52478;51.844;6.582;2023-04-15T02:19:10;5.85;;;2.53;;
65737;SDS011;52478;51.844;6.582;2023-04-15T02:21:36;7.00;;;2.40;;
65737;SDS011;52478;51.844;6.582;2023-04-15T02:24:04;6.00;;;2.65;;
65737;SDS011;52478;51.844;6.582;2023-04-15T02:26:30;5.32;;;2.22;;
65737;SDS011;52478;51.844;6.582;2023-04-15T02:28:57;6.32;;;2.45;;
65737;SDS011;52478;51.844;6.582;2023-04-15T02:31:24;5.68;;;2.47;;
65737;SDS011;52478;51.844;6.582;2023-04-15T02:33:51;5.80;;;2.55;;
65737;SDS011;52478;51.844;6.582;2023-04-15T02:36:18;6.28;;;2.70;;
65737;SDS011;52478;51.844;6.582;2023-04-15T02:38:45;6.28;;;2.78;;
65737;SDS011;52478;51.844;6.582;2023-04-15T02:41:12;7.45;;;2.65;;
65737;SDS011;52478;51.844;6.582;2023-04-15T02:43:38;6.03;;;2.22;;
65737;SDS011;52478;51.844;6.582;2023-04-15T02:46:05;5.25;;;2.13;;
65737;SDS011;52478;51.844;6.582;2023-04-15T02:48:32;6.47;;;2.80;;
65737;SDS011;52478;51.844;6.582;2023-04-15T02:53:45;6.43;;;2.78;;
65737;SDS011;52478;51.844;6.582;2023-04-15T02:56:12;6.15;;;2.65;;
65737;SDS011;52478;51.844;6.582;2023-04-15T02:58:39;6.10;;;2.35;;
65737;SDS011;52478;51.844;6.582;2023-04-15T03:01:06;6.10;;;2.45;;
65737;SDS011;52478;51.844;6.582;2023-04-15T03:03:33;5.53;;;2.60;;
65737;SDS011;52478;51.844;6.582;2023-04-15T03:06:00;5.70;;;2.40;;
65737;SDS011;52478;51.844;6.582;2023-04-15T03:08:26;6.00;;;2.38;;
65737;SDS011;52478;51.844;6.582;2023-04-15T03:10:54;6.70;;;2.60;;
65737;SDS011;52478;51.844;6.582;2023-04-15T03:13:24;6.28;;;2.33;;
65737;SDS011;52478;51.844;6.582;2023-04-15T03:15:51;6.90;;;2.50;;
65737;SDS011;52478;51.844;6.582;2023-04-15T03:18:17;5.82;;;2.90;;
65737;SDS011;52478;51.844;6.582;2023-04-15T03:20:44;5.60;;;2.25;;
65737;SDS011;52478;51.844;6.582;2023-04-15T03:23:10;5.60;;;2.58;;
65737;SDS011;52478;51.844;6.582;2023-04-15T03:25:37;5.60;;;2.50;;
65737;SDS011;52478;51.844;6.582;2023-04-15T03:28:05;6.00;;;2.15;;
65737;SDS011;52478;51.844;6.582;2023-04-15T03:30:31;6.78;;;2.53;;
65737;SDS011;52478;51.844;6.582;2023-04-15T03:32:58;5.57;;;2.00;;
65737;SDS011;52478;51.844;6.582;2023-04-15T03:35:24;5.47;;;2.63;;
65737;SDS011;52478;51.844;6.582;2023-04-15T03:37:51;5.72;;;2.70;;
65737;SDS011;52478;51.844;6.582;2023-04-15T03:40:17;5.82;;;2.20;;
65737;SDS011;52478;51.844;6.582;2023-04-15T03:42:44;5.43;;;2.05;;
65737;SDS011;52478;51.844;6.582;2023-04-15T03:45:11;6.15;;;2.33;;
65737;SDS011;52478;51.844;6.582;2023-04-15T03:47:38;5.90;;;2.55;;
65737;SDS011;52478;51.844;6.582;2023-04-15T03:50:05;5.40;;;2.17;;
65737;SDS011;52478;51.844;6.582;2023-04-15T03:52:32;4.93;;;2.35;;
65737;SDS011;52478;51.844;6.582;2023-04-15T03:54:59;6.72;;;2.10;;
65737;SDS011;52478;51.844;6.582;2023-04-15T03:57:25;5.88;;;2.22;;
65737;SDS011;52478;51.844;6.582;2023-04-15T03:59:52;5.88;;;2.72;;
65737;SDS011;52478;51.844;6.582;2023-04-15T04:02:19;5.95;;;2.40;;
65737;SDS011;52478;51.844;6.582;2023-04-15T04:04:47;5.85;;;2.30;;
65737;SDS011;52478;51.844;6.582;2023-04-15T04:07:14;5.45;;;2.30;;
65737;SDS011;52478;51.844;6.582;2023-04-15T04:09:41;6.13;;;2.60;;
65737;SDS011;52478;51.844;6.582;2023-04-15T04:12:08;6.10;;;2.25;;
65737;SDS011;52478;51.844;6.582;2023-04-15T04:14:34;5.25;;;2.70;;
65737;SDS011;52478;51.844;6.582;2023-04-15T04:17:01;6.32;;;2.33;;
65737;SDS011;52478;51.844;6.582;2023-04-15T04:19:28;6.05;;;2.55;;
65737;SDS011;52478;51.844;6.582;2023-04-15T04:21:55;5.30;;;2.35;;
65737;SDS011;52478;51.844;6.582;2023-04-15T04:24:21;5.40;;;2.33;;
65737;SDS011;52478;51.844;6.582;2023-04-15T04:26:48;5.70;;;2.25;;
65737;SDS011;52478;51.844;6.582;2023-04-15T04:29:15;7.10;;;2.63;;
65737;SDS011;52478;51.844;6.582;2023-04-15T04:31:41;6.07;;;2.67;;
65737;SDS011;52478;51.844;6.582;2023-04-15T04:34:08;6.20;;;2.70;;
65737;SDS011;52478;51.844;6.582;2023-04-15T04:36:36;5.57;;;2.42;;
65737;SDS011;52478;51.844;6.582;2023-04-15T04:39:02;5.43;;;2.10;;
65737;SDS011;52478;51.844;6.582;2023-04-15T04:41:29;5.53;;;2.58;;
65737;SDS011;52478;51.844;6.582;2023-04-15T04:43:56;6.43;;;2.50;;
65737;SDS011;52478;51.844;6.582;2023-04-15T04:46:22;5.47;;;2.78;;
65737;SDS011;52478;51.844;6.582;2023-04-15T04:48:49;5.85;;;2.70;;
65737;SDS011;52478;51.844;6.582;2023-04-15T04:51:17;6.55;;;2.97;;
65737;SDS011;52478;51.844;6.582;2023-04-15T04:53:45;5.50;;;2.55;;
65737;SDS011;52478;51.844;6.582;2023-04-15T04:56:11;6.35;;;2.55;;
65737;SDS011;52478;51.844;6.582;2023-04-15T04:58:38;5.72;;;2.63;;
65737;SDS011;52478;51.844;6.582;2023-04-15T05:01:05;6.35;;;2.65;;
65737;SDS011;52478;51.844;6.582;2023-04-15T05:03:31;6.45;;;2.75;;
65737;SDS011;52478;51.844;6.582;2023-04-15T05:05:58;5.78;;;2.90;;
65737;SDS011;52478;51.844;6.582;2023-04-15T05:08:24;6.18;;;2.40;;
65737;SDS011;52478;51.844;6.582;2023-04-15T05:10:52;6.22;;;2.97;;
65737;SDS011;52478;51.844;6.582;2023-04-15T05:13:19;5.80;;;2.75;;
65737;SDS011;52478;51.844;6.582;2023-04-15T05:15:45;5.80;;;2.70;;
65737;SDS011;52478;51.844;6.582;2023-04-15T05:18:12;5.80;;;3.00;;
65737;SDS011;52478;51.844;6.582;2023-04-15T05:20:38;5.70;;;2.53;;
65737;SDS011;52478;51.844;6.582;2023-04-15T05:23:05;5.60;;;2.40;;
65737;SDS011;52478;51.844;6.582;2023-04-15T05:25:32;5.60;;;2.30;;
65737;SDS011;52478;51.844;6.582;2023-04-15T05:27:59;6.18;;;2.90;;
65737;SDS011;52478;51.844;6.582;2023-04-15T05:30:26;7.13;;;2.60;;
65737;SDS011;52478;51.844;6.582;2023-04-15T05:32:52;5.50;;;2.30;;
65737;SDS011;52478;51.844;6.582;2023-04-15T05:35:19;6.10;;;2.70;;
65737;SDS011;52478;51.844;6.582;2023-04-15T05:37:45;5.72;;;2.72;;
65737;SDS011;52478;51.844;6.582;2023-04-15T05:40:12;5.70;;;2.38;;
65737;SDS011;52478;51.844;6.582;2023-04-15T05:45:07;5.55;;;1.85;;
65737;SDS011;52478;51.844;6.582;2023-04-15T05:47:34;4.95;;;1.80;;
65737;SDS011;52478;51.844;6.582;2023-04-15T05:50:01;4.90;;;2.10;;
65737;SDS011;52478;51.844;6.582;2023-04-15T05:52:28;5.60;;;2.80;;
65737;SDS011;52478;51.844;6.582;2023-04-15T05:54:54;5.75;;;2.33;;
65737;SDS011;52478;51.844;6.582;2023-04-15T05:57:21;8.63;;;3.22;;
65737;SDS011;52478;51.844;6.582;2023-04-15T05:59:48;10.95;;;3.20;;
65737;SDS011;52478;51.844;6.582;2023-04-15T06:02:17;9.60;;;3.03;;
65737;SDS011;52478;51.844;6.582;2023-04-15T06:04:44;9.10;;;2.85;;
65737;SDS011;52478;51.844;6.582;2023-04-15T06:07:10;10.82;;;3.67;;
65737;SDS011;52478;51.844;6.582;2023-04-15T06:09:37;7.00;;;3.20;;
65737;SDS011;52478;51.844;6.582;2023-04-15T06:12:03;6.63;;;2.63;;
65737;SDS011;52478;51.844;6.582;2023-04-15T06:21:51;8.45;;;2.60;;
65737;SDS011;52478;51.844;6.582;2023-04-15T06:24:17;7.15;;;2.88;;
65737;SDS011;52478;51.844;6.582;2023-04-15T06:26:44;8.45;;;2.78;;
65737;SDS011;52478;51.844;6.582;2023-04-15T06:29:10;8.38;;;2.50;;
65737;SDS011;52478;51.844;6.582;2023-04-15T06:31:37;7.93;;;3.40;;
65737;SDS011;52478;51.844;6.582;2023-04-15T06:34:03;6.55;;;2.92;;
65737;SDS011;52478;51.844;6.582;2023-04-15T06:36:31;6.38;;;3.10;;
65737;SDS011;52478;51.844;6.582;2023-04-15T06:38:58;6.00;;;2.47;;
65737;SDS011;52478;51.844;6.582;2023-04-15T06:41:25;7.82;;;2.60;;
65737;SDS011;52478;51.844;6.582;2023-04-15T06:43:52;6.85;;;2.83;;
65737;SDS011;52478;51.844;6.582;2023-04-15T06:46:18;6.45;;;2.65;;
65737;SDS011;52478;51.844;6.582;2023-04-15T06:48:44;7.20;;;2.63;;
65737;SDS011;52478;51.844;6.582;2023-04-15T06:51:11;5.93;;;2.50;;
65737;SDS011;52478;51.844;6.582;2023-04-15T06:53:39;6.70;;;2.83;;
65737;SDS011;52478;51.844;6.582;2023-04-15T06:56:07;7.40;;;2.50;;
65737;SDS011;52478;51.844;6.582;2023-04-15T06:58:34;9.68;;;2.83;;
65737;SDS011;52478;51.844;6.582;2023-04-15T07:01:01;8.10;;;2.88;;
65737;SDS011;52478;51.844;6.582;2023-04-15T07:03:28;7.25;;;2.80;;
65737;SDS011;52478;51.844;6.582;2023-04-15T07:05:54;6.25;;;2.50;;
65737;SDS011;52478;51.844;6.582;2023-04-15T07:08:21;6.45;;;2.20;;
65737;SDS011;52478;51.844;6.582;2023-04-15T07:10:49;7.82;;;2.50;;
65737;SDS011;52478;51.844;6.582;2023-04-15T07:13:16;5.65;;;2.60;;
65737;SDS011;52478;51.844;6.582;2023-04-15T07:15:42;6.15;;;2.65;;
65737;SDS011;52478;51.844;6.582;2023-04-15T07:18:09;8.07;;;2.88;;
65737;SDS011;52478;51.844;6.582;2023-04-15T07:20:36;6.55;;;2.70;;
65737;SDS011;52478;51.844;6.582;2023-04-15T07:23:02;7.55;;;3.08;;
65737;SDS011;52478;51.844;6.582;2023-04-15T07:25:29;6.78;;;3.20;;
65737;SDS011;52478;51.844;6.582;2023-04-15T07:27:57;7.30;;;3.15;;
65737;SDS011;52478;51.844;6.582;2023-04-15T07:30:23;6.93;;;2.92;;
65737;SDS011;52478;51.844;6.582;2023-04-15T07:32:50;6.10;;;2.35;;
65737;SDS011;52478;51.844;6.582;2023-04-15T07:35:16;7.47;;;3.17;;
65737;SDS011;52478;51.844;6.582;2023-04-15T07:37:45;7.10;;;2.90;;
65737;SDS011;52478;51.844;6.582;2023-04-15T07:40:12;7.25;;;2.67;;
65737;SDS011;52478;51.844;6.582;2023-04-15T07:42:40;6.70;;;2.30;;
65737;SDS011;52478;51.844;6.582;2023-04-15T07:45:09;6.57;;;2.85;;
65737;SDS011;52478;51.844;6.582;2023-04-15T07:47:36;5.88;;;2.80;;
65737;SDS011;52478;51.844;6.582;2023-04-15T07:50:04;7.50;;;2.65;;
65737;SDS011;52478;51.844;6.582;2023-04-15T07:55:03;6.85;;;2.72;;
65737;SDS011;52478;51.844;6.582;2023-04-15T07:57:30;6.40;;;2.60;;
65737;SDS011;52478;51.844;6.582;2023-04-15T07:59:56;6.00;;;2.20;;
65737;SDS011;52478;51.844;6.582;2023-04-15T08:02:24;5.97;;;2.40;;
65737;SDS011;52478;51.844;6.582;2023-04-15T08:04:51;4.97;;;2.00;;
65737;SDS011;52478;51.844;6.582;2023-04-15T08:07:18;6.25;;;2.67;;
65737;SDS011;52478;51.844;6.582;2023-04-15T08:12:11;5.47;;;1.60;;
65737;SDS011;52478;51.844;6.582;2023-04-15T08:14:38;4.70;;;1.73;;
65737;SDS011;52478;51.844;6.582;2023-04-15T08:17:05;6.35;;;1.92;;
65737;SDS011;52478;51.844;6.582;2023-04-15T08:19:33;6.05;;;1.80;;
65737;SDS011;52478;51.844;6.582;2023-04-15T08:22:00;7.22;;;1.77;;
65737;SDS011;52478;51.844;6.582;2023-04-15T08:24:27;5.15;;;1.50;;
65737;SDS011;52478;51.844;6.582;2023-04-15T08:26:53;5.68;;;1.52;;
65737;SDS011;52478;51.844;6.582;2023-04-15T08:29:20;4.30;;;1.65;;
65737;SDS011;52478;51.844;6.582;2023-04-15T08:31:47;4.30;;;1.48;;
65737;SDS011;52478;51.844;6.582;2023-04-15T08:34:13;5.10;;;1.55;;
65737;SDS011;52478;51.844;6.582;2023-04-15T08:36:42;6.20;;;1.60;;
65737;SDS011;52478;51.844;6.582;2023-04-15T08:39:08;5.40;;;1.58;;
65737;SDS011;52478;51.844;6.582;2023-04-15T08:41:38;6.90;;;1.60;;
65737;SDS011;52478;51.844;6.582;2023-04-15T08:44:06;7.75;;;2.25;;
65737;SDS011;52478;51.844;6.582;2023-04-15T08:46:32;8.63;;;2.22;;
65737;SDS011;52478;51.844;6.582;2023-04-15T08:48:59;7.35;;;1.83;;
65737;SDS011;52478;51.844;6.582;2023-04-15T08:51:29;7.72;;;2.00;;
65737;SDS011;52478;51.844;6.582;2023-04-15T08:53:58;8.10;;;1.75;;
65737;SDS011;52478;51.844;6.582;2023-04-15T08:56:25;6.10;;;2.08;;
65737;SDS011;52478;51.844;6.582;2023-04-15T08:58:53;8.27;;;1.60;;
65737;SDS011;52478;51.844;6.582;2023-04-15T09:01:20;8.20;;;2.10;;
65737;SDS011;52478;51.844;6.582;2023-04-15T09:03:47;6.82;;;1.80;;
65737;SDS011;52478;51.844;6.582;2023-04-15T09:06:15;4.47;;;1.60;;
65737;SDS011;52478;51.844;6.582;2023-04-15T09:08:42;7.25;;;2.08;;
65737;SDS011;52478;51.844;6.582;2023-04-15T09:11:10;5.38;;;1.63;;
65737;SDS011;52478;51.844;6.582;2023-04-15T09:13:37;7.30;;;1.80;;
65737;SDS011;52478;51.844;6.582;2023-04-15T09:16:04;6.25;;;1.80;;
65737;SDS011;52478;51.844;6.582;2023-04-15T09:18:32;6.82;;;2.20;;
65737;SDS011;52478;51.844;6.582;2023-04-15T09:21:03;5.43;;;1.88;;
65737;SDS011;52478;51.844;6.582;2023-04-15T09:23:31;6.30;;;1.98;;
65737;SDS011;52478;51.844;6.582;2023-04-15T09:25:58;6.85;;;1.90;;
65737;SDS011;52478;51.844;6.582;2023-04-15T09:28:25;6.43;;;2.20;;
65737;SDS011;52478;51.844;6.582;2023-04-15T09:30:54;7.40;;;2.00;;
65737;SDS011;52478;51.844;6.582;2023-04-15T09:33:21;6.55;;;2.05;;
65737;SDS011;52478;51.844;6.582;2023-04-15T09:35:58;8.00;;;1.73;;
65737;SDS011;52478;51.844;6.582;2023-04-15T09:38:26;5.72;;;1.75;;
65737;SDS011;52478;51.844;6.582;2023-04-15T09:40:53;5.15;;;1.77;;
65737;SDS011;52478;51.844;6.582;2023-04-15T09:43:20;6.78;;;1.70;;
65737;SDS011;52478;51.844;6.582;2023-04-15T09:45:49;6.88;;;1.60;;
65737;SDS011;52478;51.844;6.582;2023-04-15T09:48:17;6.57;;;1.80;;
65737;SDS011;52478;51.844;6.582;2023-04-15T09:50:47;5.05;;;1.60;;
65737;SDS011;52478;51.844;6.582;2023-04-15T09:53:17;5.38;;;1.50;;
65737;SDS011;52478;51.844;6.582;2023-04-15T09:55:46;5.80;;;1.92;;
65737;SDS011;52478;51.844;6.582;2023-04-15T09:58:18;5.53;;;1.88;;
65737;SDS011;52478;51.844;6.582;2023-04-15T10:00:46;5.47;;;1.80;;
65737;SDS011;52478;51.844;6.582;2023-04-15T10:03:16;5.75;;;2.08;;
65737;SDS011;52478;51.844;6.582;2023-04-15T10:05:46;5.45;;;1.63;;
65737;SDS011;52478;51.844;6.582;2023-04-15T10:08:14;5.00;;;1.58;;
65737;SDS011;52478;51.844;6.582;2023-04-15T10:10:43;5.45;;;1.83;;
65737;SDS011;52478;51.844;6.582;2023-04-15T10:13:11;6.80;;;1.52;;
65737;SDS011;52478;51.844;6.582;2023-04-15T10:15:38;7.30;;;2.03;;
65737;SDS011;52478;51.844;6.582;2023-04-15T10:18:08;6.68;;;1.70;;
65737;SDS011;52478;51.844;6.582;2023-04-15T10:20:37;5.47;;;1.55;;
65737;SDS011;52478;51.844;6.582;2023-04-15T10:23:05;6.35;;;1.55;;
65737;SDS011;52478;51.844;6.582;2023-04-15T10:25:32;5.47;;;1.55;;
65737;SDS011;52478;51.844;6.582;2023-04-15T10:27:59;4.25;;;1.30;;
65737;SDS011;52478;51.844;6.582;2023-04-15T10:30:25;6.10;;;1.52;;
65737;SDS011;52478;51.844;6.582;2023-04-15T10:32:52;5.80;;;1.55;;
65737;SDS011;52478;51.844;6.582;2023-04-15T10:35:19;6.25;;;1.80;;
65737;SDS011;52478;51.844;6.582;2023-04-15T10:37:48;7.25;;;1.83;;
65737;SDS011;52478;51.844;6.582;2023-04-15T10:40:25;5.05;;;1.85;;
65737;SDS011;52478;51.844;6.582;2023-04-15T10:42:55;5.90;;;1.70;;
65737;SDS011;52478;51.844;6.582;2023-04-15T10:45:24;6.97;;;1.73;;
65737;SDS011;52478;51.844;6.582;2023-04-15T10:47:53;4.88;;;1.40;;
65737;SDS011;52478;51.844;6.582;2023-04-15T10:50:20;5.95;;;2.20;;
65737;SDS011;52478;51.844;6.582;2023-04-15T10:52:50;5.15;;;1.52;;
65737;SDS011;52478;51.844;6.582;2023-04-15T10:55:18;5.32;;;1.30;;
65737;SDS011;52478;51.844;6.582;2023-04-15T10:57:46;5.38;;;1.80;;
65737;SDS011;52478;51.844;6.582;2023-04-15T11:00:19;5.93;;;1.98;;
65737;SDS011;52478;51.844;6.582;2023-04-15T11:02:51;6.82;;;1.63;;
65737;SDS011;52478;51.844;6.582;2023-04-15T11:05:18;4.95;;;1.40;;
65737;SDS011;52478;51.844;6.582;2023-04-15T11:07:47;7.47;;;1.48;;
65737;SDS011;52478;51.844;6.582;2023-04-15T11:13:19;5.22;;;2.10;;
65737;SDS011;52478;51.844;6.582;2023-04-15T11:15:47;5.30;;;1.80;;
65737;SDS011;52478;51.844;6.582;2023-04-15T11:18:17;5.55;;;1.50;;
65737;SDS011;52478;51.844;6.582;2023-04-15T11:20:45;6.78;;;2.00;;
65737;SDS011;52478;51.844;6.582;2023-04-15T11:23:14;4.55;;;1.60;;
65737;SDS011;52478;51.844;6.582;2023-04-15T11:25:42;5.75;;;1.40;;
65737;SDS011;52478;51.844;6.582;2023-04-15T11:28:10;5.63;;;1.50;;
65737;SDS011;52478;51.844;6.582;2023-04-15T11:30:37;4.72;;;1.50;;
65737;SDS011;52478;51.844;6.582;2023-04-15T11:33:05;5.30;;;1.70;;
65737;SDS011;52478;51.844;6.582;2023-04-15T11:35:34;4.80;;;1.40;;
65737;SDS011;52478;51.844;6.582;2023-04-15T11:38:01;5.22;;;1.50;;
65737;SDS011;52478;51.844;6.582;2023-04-15T11:40:30;4.82;;;1.50;;
65737;SDS011;52478;51.844;6.582;2023-04-15T11:43:04;5.30;;;1.40;;
65737;SDS011;52478;51.844;6.582;2023-04-15T11:45:31;5.65;;;1.90;;
65737;SDS011;52478;51.844;6.582;2023-04-15T11:48:05;6.40;;;1.60;;
65737;SDS011;52478;51.844;6.582;2023-04-15T11:50:32;4.93;;;1.70;;
65737;SDS011;52478;51.844;6.582;2023-04-15T11:55:27;5.13;;;1.70;;
65737;SDS011;52478;51.844;6.582;2023-04-15T11:58:11;5.57;;;1.55;;
65737;SDS011;52478;51.844;6.582;2023-04-15T12:00:39;4.30;;;1.73;;
65737;SDS011;52478;51.844;6.582;2023-04-15T12:03:12;5.72;;;1.40;;
65737;SDS011;52478;51.844;6.582;2023-04-15T12:11:40;3.65;;;1.30;;
65737;SDS011;52478;51.844;6.582;2023-04-15T12:14:15;4.07;;;1.40;;
65737;SDS011;52478;51.844;6.582;2023-04-15T12:16:45;5.70;;;1.55;;
65737;SDS011;52478;51.844;6.582;2023-04-15T12:19:14;5.47;;;1.88;;
65737;SDS011;52478;51.844;6.582;2023-04-15T12:21:43;5.25;;;1.60;;
65737;SDS011;52478;51.844;6.582;2023-04-15T12:24:11;4.03;;;1.50;;
65737;SDS011;52478;51.844;6.582;2023-04-15T12:26:42;5.00;;;1.80;;
65737;SDS011;52478;51.844;6.582;2023-04-15T12:29:10;6.90;;;1.70;;
65737;SDS011;52478;51.844;6.582;2023-04-15T12:31:46;4.18;;;1.50;;
65737;SDS011;52478;51.844;6.582;2023-04-15T12:34:15;4.28;;;1.35;;
65737;SDS011;52478;51.844;6.582;2023-04-15T12:36:42;4.72;;;1.63;;
65737;SDS011;52478;51.844;6.582;2023-04-15T12:39:08;4.57;;;1.50;;
65737;SDS011;52478;51.844;6.582;2023-04-15T12:41:35;6.22;;;1.60;;
65737;SDS011;52478;51.844;6.582;2023-04-15T12:44:01;5.35;;;2.03;;
65737;SDS011;52478;51.844;6.582;2023-04-15T12:46:28;4.70;;;1.38;;
65737;SDS011;52478;51.844;6.582;2023-04-15T12:48:56;5.57;;;1.70;;
65737;SDS011;52478;51.844;6.582;2023-04-15T12:51:22;5.00;;;1.98;;
65737;SDS011;52478;51.844;6.582;2023-04-15T12:53:50;4.28;;;1.77;;
65737;SDS011;52478;51.844;6.582;2023-04-15T12:56:16;5.15;;;1.70;;
65737;SDS011;52478;51.844;6.582;2023-04-15T12:58:43;4.80;;;1.65;;
65737;SDS011;52478;51.844;6.582;2023-04-15T13:01:10;5.55;;;1.50;;
65737;SDS011;52478;51.844;6.582;2023-04-15T13:03:36;5.82;;;1.67;;
65737;SDS011;52478;51.844;6.582;2023-04-15T13:06:04;5.57;;;1.73;;
65737;SDS011;52478;51.844;6.582;2023-04-15T13:08:31;5.97;;;1.60;;
65737;SDS011;52478;51.844;6.582;2023-04-15T13:10:57;5.38;;;1.83;;
65737;SDS011;52478;51.844;6.582;2023-04-15T13:13:24;6.65;;;1.40;;
65737;SDS011;52478;51.844;6.582;2023-04-15T13:15:51;4.40;;;1.75;;
65737;SDS011;52478;51.844;6.582;2023-04-15T13:18:17;4.60;;;1.48;;
65737;SDS011;52478;51.844;6.582;2023-04-15T13:20:44;7.05;;;2.10;;
65737;SDS011;52478;51.844;6.582;2023-04-15T13:23:12;4.57;;;1.30;;
65737;SDS011;52478;51.844;6.582;2023-04-15T13:25:39;3.95;;;1.40;;
65737;SDS011;52478;51.844;6.582;2023-04-15T13:28:05;4.95;;;1.23;;
65737;SDS011;52478;51.844;6.582;2023-04-15T13:30:31;8.52;;;1.48;;
65737;SDS011;52478;51.844;6.582;2023-04-15T13:32:58;6.50;;;2.05;;
65737;SDS011;52478;51.844;6.582;2023-04-15T13:35:24;4.95;;;1.40;;
65737;SDS011;52478;51.844;6.582;2023-04-15T13:37:52;6.53;;;2.03;;
65737;SDS011;52478;51.844;6.582;2023-04-15T13:40:20;5.43;;;1.50;;
65737;SDS011;52478;51.844;6.582;2023-04-15T13:42:47;8.68;;;1.70;;
65737;SDS011;52478;51.844;6.582;2023-04-15T13:45:13;5.47;;;1.48;;
65737;SDS011;52478;51.844;6.582;2023-04-15T13:47:40;7.40;;;1.73;;
65737;SDS011;52478;51.844;6.582;2023-04-15T13:50:07;5.70;;;1.77;;
65737;SDS011;52478;51.844;6.582;2023-04-15T13:52:34;5.65;;;1.70;;
65737;SDS011;52478;51.844;6.582;2023-04-15T13:55:01;8.60;;;1.90;;
65737;SDS011;52478;51.844;6.582;2023-04-15T13:57:29;5.32;;;1.80;;
65737;SDS011;52478;51.844;6.582;2023-04-15T13:59:56;6.45;;;1.80;;
65737;SDS011;52478;51.844;6.582;2023-04-15T14:02:23;5.18;;;1.75;;
65737;SDS011;52478;51.844;6.582;2023-04-15T14:04:49;6.03;;;1.80;;
65737;SDS011;52478;51.844;6.582;2023-04-15T14:07:16;6.47;;;1.60;;
65737;SDS011;52478;51.844;6.582;2023-04-15T14:09:42;4.25;;;1.40;;
65737;SDS011;52478;51.844;6.582;2023-04-15T14:12:09;6.22;;;1.70;;
65737;SDS011;52478;51.844;6.582;2023-04-15T14:14:37;5.00;;;1.58;;
65737;SDS011;52478;51.844;6.582;2023-04-15T14:17:04;4.95;;;1.60;;
65737;SDS011;52478;51.844;6.582;2023-04-15T14:19:31;5.47;;;1.70;;
65737;SDS011;52478;51.844;6.582;2023-04-15T14:21:58;4.57;;;1.50;;
65737;SDS011;52478;51.844;6.582;2023-04-15T14:24:24;5.50;;;1.77;;
65737;SDS011;52478;51.844;6.582;2023-04-15T14:26:51;5.72;;;1.50;;
65737;SDS011;52478;51.844;6.582;2023-04-15T14:29:18;6.22;;;1.40;;
65737;SDS011;52478;51.844;6.582;2023-04-15T14:31:46;4.90;;;1.60;;
65737;SDS011;52478;51.844;6.582;2023-04-15T14:34:14;5.03;;;1.55;;
65737;SDS011;52478;51.844;6.582;2023-04-15T14:36:41;4.78;;;1.50;;
65737;SDS011;52478;51.844;6.582;2023-04-15T14:39:08;6.65;;;1.60;;
65737;SDS011;52478;51.844;6.582;2023-04-15T14:41:35;5.40;;;1.80;;
65737;SDS011;52478;51.844;6.582;2023-04-15T14:44:01;4.50;;;1.40;;
65737;SDS011;52478;51.844;6.582;2023-04-15T14:46:28;4.75;;;1.60;;
65737;SDS011;52478;51.844;6.582;2023-04-15T14:48:56;4.30;;;1.60;;
65737;SDS011;52478;51.844;6.582;2023-04-15T14:51:22;4.50;;;1.60;;
65737;SDS011;52478;51.844;6.582;2023-04-15T14:53:49;4.07;;;1.38;;
65737;SDS011;52478;51.844;6.582;2023-04-15T14:56:15;5.53;;;1.60;;
65737;SDS011;52478;51.844;6.582;2023-04-15T14:58:42;4.38;;;1.60;;
65737;SDS011;52478;51.844;6.582;2023-04-15T15:01:08;5.88;;;1.60;;
65737;SDS011;52478;51.844;6.582;2023-04-15T15:03:35;5.90;;;1.70;;
65737;SDS011;52478;51.844;6.582;2023-04-15T15:06:03;5.97;;;1.63;;
65737;SDS011;52478;51.844;6.582;2023-04-15T15:08:30;4.75;;;1.70;;
65737;SDS011;52478;51.844;6.582;2023-04-15T15:10:56;5.88;;;1.80;;
65737;SDS011;52478;51.844;6.582;2023-04-15T15:13:22;6.25;;;1.80;;
65737;SDS011;52478;51.844;6.582;2023-04-15T15:15:49;6.05;;;1.73;;
65737;SDS011;52478;51.844;6.582;2023-04-15T15:18:16;4.28;;;1.50;;